createdAt,value
2023-05-23T00:01:00.975Z,24.80
2023-05-23T00:03:28.861Z,24.80
2023-05-23T00:05:56.708Z,24.70
2023-05-23T00:08:23.731Z,24.70
2023-05-23T00:10:50.815Z,24.70
2023-05-23T00:13:17.770Z,24.70
2023-05-23T00:15:45.328Z,24.70
2023-05-23T00:18:12.457Z,24.70
2023-05-23T00:20:41.679Z,24.70
2023-05-23T00:23:10.106Z,24.70
2023-05-23T00:25:37.978Z,24.70
2023-05-23T00:28:05.366Z,24.70
2023-05-23T00:30:34.027Z,24.60
2023-05-23T00:33:01.447Z,24.60
2023-05-23T00:35:28.370Z,24.70
2023-05-23T00:37:55.580Z,24.70
2023-05-23T00:40:23.497Z,24.60
2023-05-23T00:42:50.482Z,24.60
2023-05-23T00:45:18.151Z,24.60
2023-05-23T00:47:47.029Z,24.60
2023-05-23T00:50:15.776Z,24.60
2023-05-23T00:52:45.206Z,24.60
2023-05-23T00:55:13.342Z,24.60
2023-05-23T00:57:44.477Z,24.60
2023-05-23T01:00:15.691Z,24.60
2023-05-23T01:02:47.866Z,24.50
2023-05-23T01:05:17.658Z,24.60
2023-05-23T01:07:46.816Z,24.60
2023-05-23T01:10:14.963Z,24.60
2023-05-23T01:13:04.655Z,24.50
2023-05-23T01:16:02.727Z,24.50
2023-05-23T01:18:58.394Z,24.50
2023-05-23T01:21:26.911Z,24.50
2023-05-23T01:24:02.651Z,24.50
2023-05-23T01:26:39.063Z,24.50
2023-05-23T01:29:11.851Z,24.50
2023-05-23T01:31:45.415Z,24.40
2023-05-23T01:34:18.850Z,24.50
2023-05-23T01:36:46.693Z,24.40
2023-05-23T01:39:13.633Z,24.40
2023-05-23T01:41:40.969Z,24.40
2023-05-23T01:44:08.088Z,24.40
2023-05-23T01:46:39.248Z,24.40
2023-05-23T01:49:09.564Z,24.40
2023-05-23T01:51:37.015Z,24.40
2023-05-23T01:54:04.188Z,24.40
2023-05-23T01:56:31.252Z,24.40
2023-05-23T01:58:58.283Z,24.40
2023-05-23T02:01:25.409Z,24.40
2023-05-23T02:03:52.381Z,24.40
2023-05-23T02:06:19.320Z,24.40
2023-05-23T02:08:47.348Z,24.40
2023-05-23T02:11:14.714Z,24.40
2023-05-23T02:13:41.670Z,24.40
2023-05-23T02:16:08.774Z,24.40
2023-05-23T02:18:38.146Z,24.40
2023-05-23T02:21:06.001Z,24.30
2023-05-23T02:23:32.932Z,24.30
2023-05-23T02:25:59.829Z,24.30
2023-05-23T02:28:26.709Z,24.30
2023-05-23T02:30:53.661Z,24.30
2023-05-23T02:33:20.596Z,24.30
2023-05-23T02:35:49.083Z,24.30
2023-05-23T02:38:16.647Z,24.30
2023-05-23T02:40:43.601Z,24.30
2023-05-23T02:43:10.648Z,24.30
2023-05-23T02:45:37.559Z,24.30
2023-05-23T02:48:04.723Z,24.30
2023-05-23T02:50:31.742Z,24.30
2023-05-23T02:52:58.583Z,24.30
2023-05-23T02:55:25.531Z,24.20
2023-05-23T02:57:52.688Z,24.20
2023-05-23T03:00:19.889Z,24.20
2023-05-23T03:02:51.406Z,24.20
2023-05-23T03:05:18.821Z,24.20
2023-05-23T03:07:45.813Z,24.20
2023-05-23T03:10:12.773Z,24.20
2023-05-23T03:12:39.695Z,24.20
2023-05-23T03:15:07.997Z,24.20
2023-05-23T03:17:37.392Z,24.20
2023-05-23T03:20:05.631Z,24.20
2023-05-23T03:22:32.473Z,24.20
2023-05-23T03:24:59.307Z,24.20
2023-05-23T03:27:26.993Z,24.20
2023-05-23T03:29:53.953Z,24.20
2023-05-23T03:32:20.847Z,24.20
2023-05-23T03:34:47.845Z,24.20
2023-05-23T03:37:14.748Z,24.20
2023-05-23T03:39:41.579Z,24.20
2023-05-23T03:42:08.627Z,24.10
2023-05-23T03:44:35.704Z,24.10
2023-05-23T03:47:05.350Z,24.10
2023-05-23T03:49:32.194Z,24.10
2023-05-23T03:51:59.037Z,24.10
2023-05-23T03:54:26.636Z,24.20
2023-05-23T03:56:53.531Z,24.10
2023-05-23T03:59:20.496Z,24.10
2023-05-23T04:01:48.262Z,24.10
2023-05-23T04:04:17.242Z,24.10
2023-05-23T04:06:44.486Z,24.10
2023-05-23T04:09:11.373Z,24.10
2023-05-23T04:11:42.448Z,24.10
2023-05-23T04:14:09.381Z,24.10
2023-05-23T04:16:38.207Z,24.10
2023-05-23T04:19:06.018Z,24.10
2023-05-23T04:21:33.536Z,24.10
2023-05-23T04:24:06.493Z,24.10
2023-05-23T04:26:33.423Z,24.10
2023-05-23T04:29:00.326Z,24.10
2023-05-23T04:31:27.981Z,24.00
2023-05-23T04:33:56.355Z,24.10
2023-05-23T04:36:23.667Z,24.00
2023-05-23T04:38:53.928Z,24.10
2023-05-23T04:41:23.523Z,24.00
2023-05-23T04:44:11.773Z,24.00
2023-05-23T04:46:47.780Z,24.00
2023-05-23T04:49:29.428Z,24.00
2023-05-23T04:51:56.576Z,24.00
2023-05-23T04:54:28.120Z,24.00
2023-05-23T04:56:56.378Z,23.90
2023-05-23T04:59:24.929Z,23.90
2023-05-23T05:01:51.933Z,24.00
2023-05-23T05:04:19.945Z,24.00
2023-05-23T05:06:48.579Z,24.00
2023-05-23T05:09:15.997Z,23.90
2023-05-23T05:11:43.830Z,23.90
2023-05-23T05:14:10.878Z,24.00
2023-05-23T05:16:38.079Z,24.00
2023-05-23T05:19:05.709Z,23.90
2023-05-23T05:21:32.647Z,23.90
2023-05-23T05:24:00.108Z,23.90
2023-05-23T05:26:28.043Z,23.90
2023-05-23T05:28:55.407Z,23.90
2023-05-23T05:31:22.442Z,23.90
2023-05-23T05:33:49.956Z,23.90
2023-05-23T05:36:17.015Z,23.90
2023-05-23T05:38:45.832Z,23.90
2023-05-23T05:41:13.185Z,23.90
2023-05-23T05:43:45.756Z,23.90
2023-05-23T05:46:14.008Z,23.90
2023-05-23T05:48:40.994Z,23.90
2023-05-23T05:51:11.339Z,23.90
2023-05-23T05:53:38.884Z,23.90
2023-05-23T05:56:06.162Z,23.90
2023-05-23T05:58:33.264Z,23.90
2023-05-23T06:01:07.122Z,23.90
2023-05-23T06:03:34.357Z,23.90
2023-05-23T06:06:01.522Z,23.90
2023-05-23T06:08:28.669Z,23.90
2023-05-23T06:10:56.790Z,23.90
2023-05-23T06:13:25.218Z,23.90
2023-05-23T06:15:53.922Z,23.90
2023-05-23T06:18:20.938Z,24.00
2023-05-23T06:20:48.618Z,24.00
2023-05-23T06:23:17.144Z,23.90
2023-05-23T06:25:45.684Z,23.90
2023-05-23T06:28:12.731Z,23.90
2023-05-23T06:30:40.059Z,24.00
2023-05-23T06:33:08.308Z,23.90
2023-05-23T06:35:35.301Z,23.90
2023-05-23T06:38:02.239Z,23.90
2023-05-23T06:40:29.266Z,23.90
2023-05-23T06:42:56.588Z,24.00
2023-05-23T06:45:40.077Z,23.90
2023-05-23T06:48:07.015Z,24.00
2023-05-23T06:50:36.236Z,23.90
2023-05-23T06:53:03.786Z,23.90
2023-05-23T06:55:31.933Z,24.00
2023-05-23T06:57:58.820Z,24.00
2023-05-23T07:00:26.173Z,23.90
2023-05-23T07:03:07.553Z,24.00
2023-05-23T07:05:37.420Z,24.00
2023-05-23T07:08:07.795Z,23.90
2023-05-23T07:10:35.408Z,23.90
2023-05-23T07:13:14.405Z,23.90
2023-05-23T07:15:41.333Z,23.90
2023-05-23T07:18:13.605Z,23.90
2023-05-23T07:20:40.872Z,23.90
2023-05-23T07:23:16.156Z,23.90
2023-05-23T07:25:53.793Z,23.90
2023-05-23T07:28:29.428Z,23.90
2023-05-23T07:30:58.328Z,23.90
2023-05-23T07:33:25.567Z,23.90
2023-05-23T07:35:57.655Z,23.90
2023-05-23T07:38:26.293Z,24.00
2023-05-23T07:41:06.784Z,24.00
2023-05-23T07:43:38.390Z,24.00
2023-05-23T07:46:05.950Z,24.00
2023-05-23T07:48:33.476Z,24.00
2023-05-23T07:51:01.089Z,24.00
2023-05-23T07:53:28.727Z,24.00
2023-05-23T07:55:56.734Z,24.00
2023-05-23T07:58:26.391Z,24.10
2023-05-23T08:00:53.634Z,24.10
2023-05-23T08:03:46.955Z,24.10
2023-05-23T08:06:21.250Z,24.10
2023-05-23T08:08:48.214Z,24.10
2023-05-23T08:11:15.620Z,24.10
2023-05-23T08:13:46.474Z,24.10
2023-05-23T08:16:37.761Z,24.10
2023-05-23T08:19:09.086Z,24.20
2023-05-23T08:21:36.448Z,24.20
2023-05-23T08:24:03.597Z,24.20
2023-05-23T08:26:34.927Z,24.20
2023-05-23T08:29:03.997Z,24.20
2023-05-23T08:31:34.031Z,24.20
2023-05-23T08:34:02.313Z,24.30
2023-05-23T08:36:30.094Z,24.20
2023-05-23T08:38:56.993Z,24.30
2023-05-23T08:41:29.761Z,24.30
2023-05-23T08:44:03.664Z,24.30
2023-05-23T08:46:41.132Z,24.40
2023-05-23T08:49:08.815Z,24.40
2023-05-23T08:51:37.816Z,24.40
2023-05-23T08:54:14.972Z,24.40
2023-05-23T08:56:44.139Z,24.40
2023-05-23T08:59:12.166Z,24.40
2023-05-23T09:01:41.746Z,24.40
2023-05-23T09:04:12.177Z,24.40
2023-05-23T09:06:56.841Z,24.50
2023-05-23T09:09:25.171Z,24.50
2023-05-23T09:11:54.425Z,24.50
2023-05-23T09:14:22.561Z,24.50
2023-05-23T09:16:51.901Z,24.60
2023-05-23T09:19:22.601Z,24.60
2023-05-23T09:21:56.125Z,24.60
2023-05-23T09:24:36.676Z,24.60
2023-05-23T09:27:07.389Z,24.60
2023-05-23T09:29:40.779Z,24.60
2023-05-23T09:32:12.044Z,24.60
2023-05-23T09:34:59.874Z,24.60
2023-05-23T09:37:32.945Z,24.60
2023-05-23T09:40:01.785Z,24.60
2023-05-23T09:42:36.712Z,24.60
2023-05-23T09:45:04.910Z,24.60
2023-05-23T09:47:32.450Z,24.60
2023-05-23T09:49:59.415Z,24.70
2023-05-23T09:52:27.024Z,24.70
2023-05-23T09:54:54.663Z,24.70
2023-05-23T09:57:23.796Z,24.70
2023-05-23T09:59:56.459Z,24.80
2023-05-23T10:03:00.256Z,24.80
2023-05-23T10:05:49.155Z,24.80
2023-05-23T10:08:24.013Z,24.80
2023-05-23T10:10:57.178Z,24.80
2023-05-23T10:13:28.701Z,24.80
2023-05-23T10:16:17.504Z,24.80
2023-05-23T10:18:45.301Z,24.80
2023-05-23T10:21:15.604Z,24.80
2023-05-23T10:23:44.593Z,24.90
2023-05-23T10:26:11.977Z,24.90
2023-05-23T10:28:40.914Z,24.90
2023-05-23T10:31:08.567Z,25.00
2023-05-23T10:33:43.760Z,25.00
2023-05-23T10:36:19.329Z,25.00
2023-05-23T10:38:58.702Z,25.00
2023-05-23T10:41:43.460Z,25.00
2023-05-23T10:44:21.009Z,25.00
2023-05-23T10:46:53.884Z,25.00
2023-05-23T10:49:41.931Z,25.00
2023-05-23T10:52:11.443Z,25.00
2023-05-23T10:54:45.549Z,25.00
2023-05-23T10:57:16.641Z,25.00
2023-05-23T10:59:44.990Z,25.00
2023-05-23T11:02:16.916Z,25.00
2023-05-23T11:04:44.021Z,25.00
2023-05-23T11:07:31.165Z,25.00
2023-05-23T11:10:19.277Z,25.00
2023-05-23T11:12:46.206Z,25.00
2023-05-23T11:15:21.887Z,25.00
2023-05-23T11:17:57.532Z,25.00
2023-05-23T11:20:27.426Z,25.00
2023-05-23T11:23:07.844Z,25.00
2023-05-23T11:25:58.818Z,25.00
2023-05-23T11:28:25.772Z,25.10
2023-05-23T11:30:52.744Z,25.10
2023-05-23T11:33:20.907Z,25.20
2023-05-23T11:35:49.709Z,25.20
2023-05-23T11:38:17.454Z,25.20
2023-05-23T11:40:46.789Z,25.20
2023-05-23T11:43:16.596Z,25.20
2023-05-23T11:45:43.992Z,25.20
2023-05-23T11:48:13.201Z,25.20
2023-05-23T11:50:54.071Z,25.20
2023-05-23T11:53:25.009Z,25.20
2023-05-23T11:55:57.734Z,25.20
2023-05-23T11:58:30.274Z,25.20
2023-05-23T12:01:08.747Z,25.20
2023-05-23T12:03:46.674Z,25.20
2023-05-23T12:06:19.173Z,25.20
2023-05-23T12:08:47.801Z,25.20
2023-05-23T12:11:15.048Z,25.20
2023-05-23T12:13:42.612Z,25.20
2023-05-23T12:16:09.702Z,25.20
2023-05-23T12:18:38.299Z,25.20
2023-05-23T12:21:10.602Z,25.20
2023-05-23T12:23:39.475Z,25.20
2023-05-23T12:26:07.925Z,25.20
2023-05-23T12:28:44.867Z,25.30
2023-05-23T12:31:33.270Z,25.30
2023-05-23T12:34:00.369Z,25.30
2023-05-23T12:36:32.300Z,25.40
2023-05-23T12:39:03.526Z,25.30
2023-05-23T12:41:32.161Z,25.40
2023-05-23T12:43:59.474Z,25.30
2023-05-23T12:46:27.496Z,25.40
2023-05-23T12:48:55.009Z,25.40
2023-05-23T12:51:22.366Z,25.40
2023-05-23T12:53:49.284Z,25.40
2023-05-23T12:56:16.168Z,25.40
2023-05-23T12:58:43.760Z,25.50
2023-05-23T13:01:11.413Z,25.50
2023-05-23T13:03:38.418Z,25.50
2023-05-23T13:06:05.777Z,25.50
2023-05-23T13:08:32.835Z,25.50
2023-05-23T13:10:59.963Z,25.60
2023-05-23T13:13:26.920Z,25.60
2023-05-23T13:15:53.891Z,25.60
2023-05-23T13:18:20.989Z,25.50
2023-05-23T13:20:47.923Z,25.50
2023-05-23T13:23:14.989Z,25.50
2023-05-23T13:25:42.199Z,25.50
2023-05-23T13:28:09.541Z,25.40
2023-05-23T13:30:36.481Z,25.40
2023-05-23T13:33:03.630Z,25.40
2023-05-23T13:35:30.593Z,25.40
2023-05-23T13:37:57.549Z,25.40
2023-05-23T13:40:24.535Z,25.40
2023-05-23T13:42:51.916Z,25.40
2023-05-23T13:45:20.018Z,25.40
2023-05-23T13:47:47.375Z,25.40
2023-05-23T13:50:14.836Z,25.40
2023-05-23T13:52:44.876Z,25.40
2023-05-23T13:55:13.493Z,25.40
2023-05-23T13:57:40.345Z,25.40
2023-05-23T14:00:08.905Z,25.30
2023-05-23T14:02:35.945Z,25.30
2023-05-23T14:05:03.611Z,25.40
2023-05-23T14:07:30.952Z,25.30
2023-05-23T14:09:58.307Z,25.40
2023-05-23T14:12:26.169Z,25.40
2023-05-23T14:14:53.117Z,25.40
2023-05-23T14:17:19.994Z,25.40
2023-05-23T14:19:47.487Z,25.40
2023-05-23T14:22:14.670Z,25.40
2023-05-23T14:24:41.643Z,25.40
2023-05-23T14:27:10.845Z,25.40
2023-05-23T14:29:38.860Z,25.40
2023-05-23T14:32:06.168Z,25.50
2023-05-23T14:34:33.179Z,25.50
2023-05-23T14:37:01.128Z,25.50
2023-05-23T14:39:29.081Z,25.50
2023-05-23T14:41:56.215Z,25.50
2023-05-23T14:44:23.371Z,25.50
2023-05-23T14:46:50.691Z,25.50
2023-05-23T14:49:17.890Z,25.60
2023-05-23T14:51:49.096Z,25.60
2023-05-23T14:54:18.553Z,25.60
2023-05-23T14:56:45.680Z,25.70
2023-05-23T14:59:12.768Z,25.70
2023-05-23T15:01:40.642Z,25.70
2023-05-23T15:04:09.288Z,25.80
2023-05-23T15:06:39.260Z,25.80
2023-05-23T15:09:07.648Z,25.80
2023-05-23T15:11:38.974Z,25.90
2023-05-23T15:14:06.216Z,25.90
2023-05-23T15:16:33.508Z,26.00
2023-05-23T15:19:00.690Z,26.00
2023-05-23T15:21:28.144Z,26.00
2023-05-23T15:23:55.093Z,26.00
2023-05-23T15:26:22.519Z,26.10
2023-05-23T15:28:49.634Z,26.10
2023-05-23T15:31:16.742Z,26.10
2023-05-23T15:33:43.769Z,26.20
2023-05-23T15:36:13.132Z,26.20
2023-05-23T15:38:40.364Z,26.30
2023-05-23T15:41:07.334Z,26.30
2023-05-23T15:43:35.579Z,26.30
2023-05-23T15:46:02.774Z,26.30
2023-05-23T15:48:29.803Z,26.30
2023-05-23T15:50:56.770Z,26.30
2023-05-23T15:53:23.677Z,26.30
2023-05-23T15:55:50.608Z,26.30
2023-05-23T15:58:17.452Z,26.30
2023-05-23T16:00:44.417Z,26.30
2023-05-23T16:03:11.480Z,26.30
2023-05-23T16:05:38.601Z,26.30
2023-05-23T16:08:05.580Z,26.20
2023-05-23T16:10:32.514Z,26.20
2023-05-23T16:12:59.360Z,26.20
2023-05-23T16:15:26.249Z,26.10
2023-05-23T16:17:53.251Z,26.10
2023-05-23T16:20:20.091Z,26.10
2023-05-23T16:22:47.092Z,26.00
2023-05-23T16:25:14.090Z,26.00
2023-05-23T16:27:41.001Z,25.90
2023-05-23T16:30:08.551Z,25.90
2023-05-23T16:32:35.653Z,25.90
2023-05-23T16:35:02.693Z,25.80
2023-05-23T16:37:29.611Z,25.80
2023-05-23T16:39:56.548Z,25.70
2023-05-23T16:42:23.540Z,25.70
2023-05-23T16:44:50.446Z,25.70
2023-05-23T16:47:17.445Z,25.70
2023-05-23T16:49:44.486Z,25.70
2023-05-23T16:52:11.624Z,25.60
2023-05-23T16:54:38.801Z,25.60
2023-05-23T16:57:06.123Z,25.50
2023-05-23T16:59:33.094Z,25.60
2023-05-23T17:02:00.197Z,25.50
2023-05-23T17:04:27.108Z,25.50
2023-05-23T17:06:54.129Z,25.50
2023-05-23T17:09:22.476Z,25.40
2023-05-23T17:11:50.502Z,25.40
2023-05-23T17:14:17.658Z,25.40
2023-05-23T17:16:44.712Z,25.40
2023-05-23T17:19:11.688Z,25.40
2023-05-23T17:21:38.698Z,25.40
2023-05-23T17:24:06.016Z,25.30
2023-05-23T17:26:32.946Z,25.30
2023-05-23T17:28:59.957Z,25.30
2023-05-23T17:31:29.655Z,25.30
2023-05-23T17:33:57.617Z,25.20
2023-05-23T17:36:24.502Z,25.20
2023-05-23T17:38:53.762Z,25.20
2023-05-23T17:41:23.196Z,25.20
2023-05-23T17:43:50.732Z,25.20
2023-05-23T17:46:17.695Z,25.10
2023-05-23T17:48:47.154Z,25.10
2023-05-23T17:51:15.718Z,25.10
2023-05-23T17:53:42.871Z,25.10
2023-05-23T17:56:10.353Z,25.00
2023-05-23T17:58:38.534Z,25.00
2023-05-23T18:01:06.933Z,25.00
2023-05-23T18:03:33.927Z,25.00
2023-05-23T18:06:00.854Z,25.00
2023-05-23T18:08:27.946Z,24.90
2023-05-23T18:10:54.801Z,24.90
2023-05-23T18:13:21.933Z,24.90
2023-05-23T18:15:48.840Z,24.90
2023-05-23T18:18:19.111Z,24.90
2023-05-23T18:20:46.319Z,24.80
2023-05-23T18:23:13.277Z,24.80
2023-05-23T18:25:40.128Z,24.80
2023-05-23T18:28:07.132Z,24.80
2023-05-23T18:30:34.017Z,24.80
2023-05-23T18:33:01.112Z,24.80
2023-05-23T18:35:28.450Z,24.80
2023-05-23T18:37:55.454Z,24.80
2023-05-23T18:40:23.964Z,24.80
2023-05-23T18:42:51.228Z,24.70
2023-05-23T18:45:18.250Z,24.70
2023-05-23T18:47:45.262Z,24.70
2023-05-23T18:50:13.321Z,24.70
2023-05-23T18:52:40.772Z,24.70
2023-05-23T18:55:08.193Z,24.60
2023-05-23T18:57:35.044Z,24.60
2023-05-23T19:00:03.387Z,24.60
2023-05-23T19:02:30.309Z,24.60
2023-05-23T19:04:57.284Z,24.60
2023-05-23T19:07:24.158Z,24.50
2023-05-23T19:09:51.384Z,24.50
2023-05-23T19:12:19.478Z,24.50
2023-05-23T19:14:46.603Z,24.40
2023-05-23T19:17:13.460Z,24.40
2023-05-23T19:19:40.518Z,24.40
2023-05-23T19:22:07.437Z,24.40
2023-05-23T19:24:34.307Z,24.40
2023-05-23T19:27:02.316Z,24.30
2023-05-23T19:29:29.250Z,24.30
2023-05-23T19:31:57.395Z,24.30
2023-05-23T19:34:24.320Z,24.30
2023-05-23T19:36:51.410Z,24.20
2023-05-23T19:39:18.385Z,24.20
2023-05-23T19:41:45.249Z,24.20
2023-05-23T19:44:13.212Z,24.20
2023-05-23T19:46:40.205Z,24.20
2023-05-23T19:49:08.290Z,24.20
2023-05-23T19:51:36.663Z,24.10
2023-05-23T19:54:03.993Z,24.10
2023-05-23T19:56:31.049Z,24.10
2023-05-23T19:58:57.912Z,24.10
2023-05-23T20:01:24.896Z,24.10
2023-05-23T20:03:52.346Z,24.10
2023-05-23T20:06:20.681Z,24.10
2023-05-23T20:08:47.854Z,24.10
2023-05-23T20:11:14.805Z,24.10
2023-05-23T20:13:41.727Z,24.10
2023-05-23T20:16:09.000Z,24.00
2023-05-23T20:18:36.219Z,24.00
2023-05-23T20:21:05.136Z,23.90
2023-05-23T20:23:32.327Z,23.90
2023-05-23T20:25:59.532Z,23.90
2023-05-23T20:28:27.372Z,23.90
2023-05-23T20:30:54.284Z,23.90
2023-05-23T20:33:21.779Z,23.90
2023-05-23T20:35:48.888Z,23.90
2023-05-23T20:38:18.525Z,23.90
2023-05-23T20:40:49.244Z,23.90
2023-05-23T20:43:18.585Z,23.90
2023-05-23T20:45:45.430Z,23.90
2023-05-23T20:48:12.315Z,23.90
2023-05-23T20:50:40.607Z,23.90
2023-05-23T20:53:07.797Z,23.90
2023-05-23T20:55:35.730Z,23.90
2023-05-23T20:58:02.625Z,23.90
2023-05-23T21:00:29.490Z,23.90
2023-05-23T21:02:56.733Z,23.80
2023-05-23T21:05:23.843Z,23.80
2023-05-23T21:07:50.764Z,23.80
2023-05-23T21:10:17.740Z,23.80
2023-05-23T21:12:50.202Z,23.80
2023-05-23T21:15:18.009Z,23.80
2023-05-23T21:17:45.320Z,23.80
2023-05-23T21:20:13.031Z,23.80
2023-05-23T21:22:40.118Z,23.80
2023-05-23T21:25:07.280Z,23.80
2023-05-23T21:27:34.230Z,23.70
2023-05-23T21:30:01.208Z,23.80
2023-05-23T21:32:29.072Z,23.70
2023-05-23T21:34:56.467Z,23.70
2023-05-23T21:37:24.086Z,23.70
2023-05-23T21:39:52.626Z,23.70
2023-05-23T21:42:21.006Z,23.70
2023-05-23T21:44:48.297Z,23.70
2023-05-23T21:47:15.291Z,23.70
2023-05-23T21:49:42.249Z,23.70
2023-05-23T21:52:09.237Z,23.60
2023-05-23T21:54:36.256Z,23.60
2023-05-23T21:57:03.259Z,23.60
2023-05-23T21:59:30.188Z,23.60
2023-05-23T22:01:57.188Z,23.60
2023-05-23T22:04:24.068Z,23.60
2023-05-23T22:06:52.038Z,23.60
2023-05-23T22:09:19.024Z,23.60
2023-05-23T22:11:46.085Z,23.60
2023-05-23T22:14:12.974Z,23.60
2023-05-23T22:16:40.224Z,23.60
2023-05-23T22:19:09.778Z,23.50
2023-05-23T22:21:37.036Z,23.50
2023-05-23T22:24:04.716Z,23.50
2023-05-23T22:26:32.179Z,23.50
2023-05-23T22:28:59.325Z,23.50
2023-05-23T22:31:26.417Z,23.50
2023-05-23T22:33:53.465Z,23.50
2023-05-23T22:36:22.099Z,23.50
2023-05-23T22:38:49.100Z,23.50
2023-05-23T22:41:15.946Z,23.40
2023-05-23T22:43:42.969Z,23.50
2023-05-23T22:46:09.858Z,23.40
2023-05-23T22:48:38.009Z,23.40
2023-05-23T22:51:05.902Z,23.40
2023-05-23T22:53:32.902Z,23.40
2023-05-23T22:55:59.887Z,23.40
2023-05-23T22:58:26.927Z,23.40
2023-05-23T23:00:53.791Z,23.40
2023-05-23T23:03:20.826Z,23.40
2023-05-23T23:05:47.917Z,23.30
2023-05-23T23:08:16.098Z,23.40
2023-05-23T23:10:43.863Z,23.30
2023-05-23T23:13:13.601Z,23.30
2023-05-23T23:15:42.801Z,23.30
2023-05-23T23:18:10.120Z,23.30
2023-05-23T23:20:38.863Z,23.30
2023-05-23T23:23:05.993Z,23.30
2023-05-23T23:25:33.382Z,23.30
2023-05-23T23:28:00.871Z,23.30
2023-05-23T23:30:28.152Z,23.20
2023-05-23T23:32:55.177Z,23.30
2023-05-23T23:35:22.258Z,23.20
2023-05-23T23:37:49.122Z,23.20
2023-05-23T23:40:16.161Z,23.20
2023-05-23T23:42:42.966Z,23.20
2023-05-23T23:45:10.526Z,23.20
2023-05-23T23:47:37.745Z,23.20
2023-05-23T23:50:05.048Z,23.20
2023-05-23T23:52:32.986Z,23.20
2023-05-23T23:54:59.950Z,23.20
2023-05-23T23:57:26.837Z,23.10
2023-05-23T23:59:53.655Z,23.10
